Sioux Arrow — WAG6168 — position and weather

sailwx.info

Track history (hours):
 
Tides and Currents Weather Stations Pressure Air Temp Water Temp Dewpoint Dewpoint Depression Visibility Wind Speed Wind Dir Waves Ship Positions

Sioux Arrow

Owner: HARMON, JACK L, PORT ANGELES, WA. More information available from US FCC via Universal Licensing System and Coast Guard Vessel Documentation Center.

Last reported at 2017-Jan-24 22:33 UTC. Time now 2017-Jan-24 23:26 UTC.
Position N 48°31' W 122°36'.

Type: Port tender. MMSI: 366973370.

Date/timePositionNaut miles runAvg speedWind from/ knotsBaromVisibWave heightAir tempDewpointWater temp
2017-Jan-24 22:33N 48°31' W 122°36'0 0.4
2017-Jan-24 21:33N 48°31' W 122°36'0 0.1
2017-Jan-24 19:17N 48°31' W 122°36'6 8.4
2017-Jan-24 18:33N 48°36' W 122°33'6 6.1
2017-Jan-24 17:34N 48°31' W 122°36'5 5.3
2017-Jan-24 16:33N 48°35' W 122°32'6 1.0
2017-Jan-24 11:04N 48°31' W 122°36'5 9.6
2017-Jan-24 10:33N 48°35' W 122°34'4 4.4
2017-Jan-24 09:33N 48°31' W 122°36'1 0.1
2017-Jan-24 02:33N 48°31' W 122°36'2 2.1
2017-Jan-24 01:33N 48°32' W 122°34'2 2.1
2017-Jan-24 00:33N 48°31' W 122°36'6 6.0
2017-Jan-23 23:34N 48°36' W 122°33'6 5.9
2017-Jan-23 22:33N 48°31' W 122°36'0 0.0
2017-Jan-23 21:33N 48°31' W 122°36'6 6.1
2017-Jan-23 20:33N 48°36' W 122°33'6 6.1
2017-Jan-23 19:33N 48°31' W 122°36'5 5.5
2017-Jan-23 18:33N 48°35' W 122°32'0 0.1
2017-Jan-23 17:33N 48°35' W 122°32'4 3.9
2017-Jan-23 16:33N 48°32' W 122°34'2 1.8
2017-Jan-23 15:33N 48°31' W 122°36'5 5.2
2017-Jan-23 14:33N 48°36' W 122°34'5 0.3
2017-Jan-22 22:10N 48°31' W 122°36'5 7.6
2017-Jan-22 21:33N 48°35' W 122°36'5 4.6
2017-Jan-22 20:33N 48°31' W 122°36'2 0.1
2017-Jan-22 01:33N 48°32' W 122°34'5 4.8
2017-Jan-22 00:33N 48°36' W 122°33'6 5.8
2017-Jan-21 23:33N 48°31' W 122°36'0 0.5
2017-Jan-21 22:33N 48°31' W 122°36'0 0.0
2017-Jan-21 21:33N 48°31' W 122°36'3 2.5
2017-Jan-21 20:33N 48°33' W 122°34'3 2.9
2017-Jan-21 19:33N 48°35' W 122°33'5 5.0
2017-Jan-21 18:33N 48°31' W 122°36'3 0.3
2017-Jan-21 06:33N 48°34' W 122°34'2 2.5
2017-Jan-21 05:33N 48°31' W 122°35'1 0.3
2017-Jan-21 02:33N 48°31' W 122°34'2 1.9
2017-Jan-21 01:33N 48°31' W 122°36'0 0.0
2017-Jan-21 00:33N 48°31' W 122°36'0 0.0
2017-Jan-20 23:33N 48°31' W 122°36'0 0.0
2017-Jan-20 22:33N 48°31' W 122°36'0 0.0
2017-Jan-20 21:33N 48°31' W 122°36'0 0.0
2017-Jan-20 20:33N 48°31' W 122°36'2 1.6
2017-Jan-20 19:33N 48°31' W 122°34'1 0.7
2017-Jan-20 18:33N 48°31' W 122°35'1 1.0
2017-Jan-20 17:33N 48°31' W 122°37'1 0.9
2017-Jan-20 16:33N 48°31' W 122°35'1 0.9
2017-Jan-20 15:33N 48°31' W 122°36'  
2017-Jan-17 06:07N 48°31' W 122°36'0 0.0
2017-Jan-17 05:33N 48°31' W 122°36'0 0.0
2017-Jan-17 04:33N 48°31' W 122°36'0 0.2
2017-Jan-17 03:33N 48°31' W 122°36'0 0.0
2017-Jan-17 02:33N 48°31' W 122°36'0 0.2
2017-Jan-17 01:33N 48°31' W 122°36'1 1.0
2017-Jan-17 00:34N 48°31' W 122°35'1 0.8
2017-Jan-16 23:33N 48°31' W 122°36'0 0.2
2017-Jan-16 22:33N 48°31' W 122°36'0 0.0
2017-Jan-16 21:33N 48°31' W 122°36'1 0.6
2017-Jan-16 20:33N 48°31' W 122°36'0 0.4
2017-Jan-16 19:33N 48°31' W 122°36'0 0.2
2017-Jan-16 18:33N 48°31' W 122°37'1 0.7
2017-Jan-16 17:33N 48°30' W 122°36'1 0.6
2017-Jan-16 16:33N 48°31' W 122°36'0 0.1
2017-Jan-16 15:33N 48°31' W 122°36'1 0.3
2017-Jan-16 10:09N 48°32' W 122°35'1 0.5
2017-Jan-16 07:12N 48°31' W 122°36'1 1.4
2017-Jan-16 06:16N 48°31' W 122°35'1 1.7
2017-Jan-16 05:31N 48°31' W 122°36'0 0.0
2017-Jan-16 04:32N 48°31' W 122°36'0 0.0
2017-Jan-16 03:33N 48°31' W 122°36'0 0.0
2017-Jan-16 02:33N 48°31' W 122°36'0 0.0
2017-Jan-16 01:33N 48°31' W 122°36'0 0.0
2017-Jan-16 00:33N 48°31' W 122°36'0 0.0
2017-Jan-15 23:33N 48°31' W 122°36'0 0.0
2017-Jan-15 22:33N 48°31' W 122°36'0 0.0
2017-Jan-15 21:33N 48°31' W 122°36'1 1.0
2017-Jan-15 20:33N 48°31' W 122°35'1 0.7
2017-Jan-15 19:33N 48°31' W 122°34'2 1.7
2017-Jan-15 18:33N 48°31' W 122°36'0 0.0
2017-Jan-15 17:33N 48°31' W 122°36'0 0.0
2017-Jan-15 16:33N 48°31' W 122°36'6 5.7
2017-Jan-15 15:30N 48°36' W 122°33'6 1.2
2017-Jan-15 10:32N 48°31' W 122°36'5 5.0
2017-Jan-15 09:32N 48°35' W 122°34'5 0.6
2017-Jan-15 01:33N 48°31' W 122°36'3 3.0
2017-Jan-15 00:34N 48°33' W 122°34'3 3.0
2017-Jan-14 23:33N 48°31' W 122°36'  
Track history (hours):
 
Tides and Currents Weather Stations Pressure Air Temp Water Temp Dewpoint Dewpoint Depression Visibility Wind Speed Wind Dir Waves Ship Positions

Sioux Arrow

Owner: HARMON, JACK L, PORT ANGELES, WA. More information available from US FCC via Universal Licensing System and Coast Guard Vessel Documentation Center.

Last reported at 2017-Jan-24 22:33 UTC. Time now 2017-Jan-24 23:26 UTC.
Position N 48°31' W 122°36'.

Type: Port tender. MMSI: 366973370.

Date/timePositionNaut miles runAvg speedWind from/ knotsBaromVisibWave heightAir tempDewpointWater temp
2017-Jan-24 22:33N 48°31' W 122°36'0 0.4
2017-Jan-24 21:33N 48°31' W 122°36'0 0.1
2017-Jan-24 19:17N 48°31' W 122°36'6 8.4
2017-Jan-24 18:33N 48°36' W 122°33'6 6.1
2017-Jan-24 17:34N 48°31' W 122°36'5 5.3
2017-Jan-24 16:33N 48°35' W 122°32'6 1.0
2017-Jan-24 11:04N 48°31' W 122°36'5 9.6
2017-Jan-24 10:33N 48°35' W 122°34'4 4.4
2017-Jan-24 09:33N 48°31' W 122°36'1 0.1
2017-Jan-24 02:33N 48°31' W 122°36'2 2.1
2017-Jan-24 01:33N 48°32' W 122°34'2 2.1
2017-Jan-24 00:33N 48°31' W 122°36'6 6.0
2017-Jan-23 23:34N 48°36' W 122°33'6 5.9
2017-Jan-23 22:33N 48°31' W 122°36'0 0.0
2017-Jan-23 21:33N 48°31' W 122°36'6 6.1
2017-Jan-23 20:33N 48°36' W 122°33'6 6.1
2017-Jan-23 19:33N 48°31' W 122°36'5 5.5
2017-Jan-23 18:33N 48°35' W 122°32'0 0.1
2017-Jan-23 17:33N 48°35' W 122°32'4 3.9
2017-Jan-23 16:33N 48°32' W 122°34'2 1.8
2017-Jan-23 15:33N 48°31' W 122°36'5 5.2
2017-Jan-23 14:33N 48°36' W 122°34'5 0.3
2017-Jan-22 22:10N 48°31' W 122°36'5 7.6
2017-Jan-22 21:33N 48°35' W 122°36'5 4.6
2017-Jan-22 20:33N 48°31' W 122°36'2 0.1
2017-Jan-22 01:33N 48°32' W 122°34'5 4.8
2017-Jan-22 00:33N 48°36' W 122°33'6 5.8
2017-Jan-21 23:33N 48°31' W 122°36'0 0.5
2017-Jan-21 22:33N 48°31' W 122°36'0 0.0
2017-Jan-21 21:33N 48°31' W 122°36'3 2.5
2017-Jan-21 20:33N 48°33' W 122°34'3 2.9
2017-Jan-21 19:33N 48°35' W 122°33'5 5.0
2017-Jan-21 18:33N 48°31' W 122°36'3 0.3
2017-Jan-21 06:33N 48°34' W 122°34'2 2.5
2017-Jan-21 05:33N 48°31' W 122°35'1 0.3
2017-Jan-21 02:33N 48°31' W 122°34'2 1.9
2017-Jan-21 01:33N 48°31' W 122°36'0 0.0
2017-Jan-21 00:33N 48°31' W 122°36'0 0.0
2017-Jan-20 23:33N 48°31' W 122°36'0 0.0
2017-Jan-20 22:33N 48°31' W 122°36'0 0.0
2017-Jan-20 21:33N 48°31' W 122°36'0 0.0
2017-Jan-20 20:33N 48°31' W 122°36'2 1.6
2017-Jan-20 19:33N 48°31' W 122°34'1 0.7
2017-Jan-20 18:33N 48°31' W 122°35'1 1.0
2017-Jan-20 17:33N 48°31' W 122°37'1 0.9
2017-Jan-20 16:33N 48°31' W 122°35'1 0.9
2017-Jan-20 15:33N 48°31' W 122°36'  
2017-Jan-17 06:07N 48°31' W 122°36'0 0.0
2017-Jan-17 05:33N 48°31' W 122°36'0 0.0
2017-Jan-17 04:33N 48°31' W 122°36'0 0.2
2017-Jan-17 03:33N 48°31' W 122°36'0 0.0
2017-Jan-17 02:33N 48°31' W 122°36'0 0.2
2017-Jan-17 01:33N 48°31' W 122°36'1 1.0
2017-Jan-17 00:34N 48°31' W 122°35'1 0.8
2017-Jan-16 23:33N 48°31' W 122°36'0 0.2
2017-Jan-16 22:33N 48°31' W 122°36'0 0.0
2017-Jan-16 21:33N 48°31' W 122°36'1 0.6
2017-Jan-16 20:33N 48°31' W 122°36'0 0.4
2017-Jan-16 19:33N 48°31' W 122°36'0 0.2
2017-Jan-16 18:33N 48°31' W 122°37'1 0.7
2017-Jan-16 17:33N 48°30' W 122°36'1 0.6
2017-Jan-16 16:33N 48°31' W 122°36'0 0.1
2017-Jan-16 15:33N 48°31' W 122°36'1 0.3
2017-Jan-16 10:09N 48°32' W 122°35'1 0.5
2017-Jan-16 07:12N 48°31' W 122°36'1 1.4
2017-Jan-16 06:16N 48°31' W 122°35'1 1.7
2017-Jan-16 05:31N 48°31' W 122°36'0 0.0
2017-Jan-16 04:32N 48°31' W 122°36'0 0.0
2017-Jan-16 03:33N 48°31' W 122°36'0 0.0
2017-Jan-16 02:33N 48°31' W 122°36'0 0.0
2017-Jan-16 01:33N 48°31' W 122°36'0 0.0
2017-Jan-16 00:33N 48°31' W 122°36'0 0.0
2017-Jan-15 23:33N 48°31' W 122°36'0 0.0
2017-Jan-15 22:33N 48°31' W 122°36'0 0.0
2017-Jan-15 21:33N 48°31' W 122°36'1 1.0
2017-Jan-15 20:33N 48°31' W 122°35'1 0.7
2017-Jan-15 19:33N 48°31' W 122°34'2 1.7
2017-Jan-15 18:33N 48°31' W 122°36'0 0.0
2017-Jan-15 17:33N 48°31' W 122°36'0 0.0
2017-Jan-15 16:33N 48°31' W 122°36'6 5.7
2017-Jan-15 15:30N 48°36' W 122°33'6 1.2
2017-Jan-15 10:32N 48°31' W 122°36'5 5.0
2017-Jan-15 09:32N 48°35' W 122°34'5 0.6
2017-Jan-15 01:33N 48°31' W 122°36'3 3.0
2017-Jan-15 00:34N 48°33' W 122°34'3 3.0
2017-Jan-14 23:33N 48°31' W 122°36'  

Dump ship's entire track history